^^

New Milford Station Historical Data

 
Daily Summary for July 20, 2019 Units:  English    Metric   Both
Daily Weekly Monthly Yearly Custom
  Current: High: Low: Average:
Temperature: 81.2 °F 95.1 °F 73.8 °F 83 °F
Dew Point: 75.2 °F 77.2 °F 72.2 °F 74.5 °F
Humidity: 82% 98% 49% 78%
Wind Speed: 0mph 6mph 0mph 0.5mph
Wind Gust: 0mph 10mph - -
WindCalm - - South
Pressure: 29.76 in 29.82 in 29.72 in -
Precipitation: 0 in      
Historical Graphs
 
 
Tabular Data for July 20, 2019
Time Temperature Dew Point Pressure Wind Wind Speed Wind Gust Humidity Rainfall Rate (Hourly) solar
00:00 77.5 °F 75.7 °F 29.79 in Calm     94% 0 in WeatherDisplay:10.37 W/m2
00:05 77.4 °F 75.5 °F 29.79 in Calm     94% 0 in WeatherDisplay:10.37 W/m2
00:10 77.7 °F 75.8 °F 29.79 in Calm   1 mph 94% 0 in WeatherDisplay:10.37 W/m2
00:15 77.3 °F 75.8 °F 29.78 in Calm   2 mph 95% 0 in WeatherDisplay:10.37 W/m2
00:20 77.3 °F 75.5 °F 29.78 in Calm     94% 0 in WeatherDisplay:10.37 W/m2
00:25 77.2 °F 75.3 °F 29.78 in Calm     94% 0 in WeatherDisplay:10.37 W/m2
00:30 77.2 °F 75.4 °F 29.78 in Calm     94% 0 in WeatherDisplay:10.37 W/m2
00:35 77.2 °F 75.7 °F 29.79 in Calm     95% 0 in WeatherDisplay:10.37 W/m2
00:40 77.1 °F 75.6 °F 29.79 in Calm     95% 0 in WeatherDisplay:10.37 W/m2
00:45 77.1 °F 75.6 °F 29.79 in Calm     95% 0 in WeatherDisplay:10.37 W/m2
00:50 77 °F 75.5 °F 29.79 in Calm     95% 0 in WeatherDisplay:10.37 W/m2
00:55 77 °F 75.5 °F 29.79 in Calm     95% 0 in WeatherDisplay:10.37 W/m2
01:00 76.9 °F 75.4 °F 29.79 in Calm     95% 0 in WeatherDisplay:10.37 W/m2
01:05 76.9 °F 75.4 °F 29.78 in Calm     95% 0 in WeatherDisplay:10.37 W/m2
01:10 76.9 °F 75.3 °F 29.79 in Calm     95% 0 in WeatherDisplay:10.37 W/m2
01:15 76.9 °F 75.6 °F 29.79 in Calm     96% 0 in WeatherDisplay:10.37 W/m2
01:20 76.8 °F 75.6 °F 29.79 in Calm     96% 0 in WeatherDisplay:10.37 W/m2
01:25 76.7 °F 75.5 °F 29.79 in Calm     96% 0 in WeatherDisplay:10.37 W/m2
01:30 76.7 °F 75.5 °F 29.79 in Calm     96% 0 in WeatherDisplay:10.37 W/m2
01:35 76.6 °F 75.4 °F 29.79 in Calm     96% 0 in WeatherDisplay:10.37 W/m2
01:40 76.7 °F 75.5 °F 29.79 in Calm     96% 0 in WeatherDisplay:10.37 W/m2
01:45 76.7 °F 75.5 °F 29.79 in Calm     96% 0 in WeatherDisplay:10.37 W/m2
01:50 76.5 °F 75.3 °F 29.79 in Calm     96% 0 in WeatherDisplay:10.37 W/m2
01:55 76.4 °F 75.2 °F 29.79 in Calm     96% 0 in WeatherDisplay:10.37 W/m2
02:00 76.4 °F 75.2 °F 29.79 in Calm     96% 0 in WeatherDisplay:10.37 W/m2
02:05 76.3 °F 75.1 °F 29.79 in Calm     96% 0 in WeatherDisplay:10.37 W/m2
02:10 76.2 °F 75 °F 29.78 in Calm     96% 0 in WeatherDisplay:10.37 W/m2
02:15 76.2 °F 75.2 °F 29.79 in Calm     97% 0 in WeatherDisplay:10.37 W/m2
02:20 76.1 °F 75.2 °F 29.78 in WSW 1 mph 3 mph 97% 0 in WeatherDisplay:10.37 W/m2
02:25 76.1 °F 75.2 °F 29.78 in Calm     97% 0 in WeatherDisplay:10.37 W/m2
02:30 76.1 °F 75.1 °F 29.78 in Calm     97% 0 in WeatherDisplay:10.37 W/m2
02:35 76 °F 75.1 °F 29.79 in Calm   2 mph 97% 0 in WeatherDisplay:10.37 W/m2
02:40 76 °F 75.1 °F 29.79 in Calm   1 mph 97% 0 in WeatherDisplay:10.37 W/m2
02:45 75.9 °F 75 °F 29.79 in Calm     97% 0 in WeatherDisplay:10.37 W/m2
02:50 75.8 °F 74.9 °F 29.79 in Calm     97% 0 in WeatherDisplay:10.37 W/m2
02:55 75.8 °F 74.9 °F 29.79 in Calm     97% 0 in WeatherDisplay:10.37 W/m2
03:00 75.8 °F 74.9 °F 29.79 in Calm     97% 0 in WeatherDisplay:10.37 W/m2
03:05 75.8 °F 75.1 °F 29.78 in Calm     98% 0 in WeatherDisplay:10.37 W/m2
03:10 75.7 °F 75.1 °F 29.79 in Calm     98% 0 in WeatherDisplay:10.37 W/m2
03:15 75.6 °F 75 °F 29.79 in Calm     98% 0 in WeatherDisplay:10.37 W/m2
03:20 75.5 °F 74.9 °F 29.79 in Calm     98% 0 in WeatherDisplay:10.37 W/m2
03:25 75.4 °F 74.8 °F 29.79 in Calm     98% 0 in WeatherDisplay:10.37 W/m2
03:30 75.4 °F 74.8 °F 29.79 in Calm     98% 0 in WeatherDisplay:10.37 W/m2
03:35 75.6 °F 74.9 °F 29.78 in Calm     98% 0 in WeatherDisplay:10.37 W/m2
03:40 75.4 °F 74.8 °F 29.78 in Calm     98% 0 in WeatherDisplay:10.37 W/m2
03:45 75.3 °F 74.7 °F 29.79 in Calm     98% 0 in WeatherDisplay:10.37 W/m2
03:50 75.2 °F 74.6 °F 29.79 in Calm     98% 0 in WeatherDisplay:10.37 W/m2
03:55 75.2 °F 74.6 °F 29.79 in Calm     98% 0 in WeatherDisplay:10.37 W/m2
04:00 75.2 °F 74.6 °F 29.79 in Calm     98% 0 in WeatherDisplay:10.37 W/m2
04:05 75.1 °F 74.5 °F 29.79 in Calm     98% 0 in WeatherDisplay:10.37 W/m2
04:10 75 °F 74.4 °F 29.79 in Calm     98% 0 in WeatherDisplay:10.37 W/m2
04:15 75 °F 74.4 °F 29.79 in Calm     98% 0 in WeatherDisplay:10.37 W/m2
04:20 75 °F 74.4 °F 29.79 in Calm     98% 0 in WeatherDisplay:10.37 W/m2
04:25 74.9 °F 74.3 °F 29.79 in Calm     98% 0 in WeatherDisplay:10.37 W/m2
04:30 74.9 °F 74.3 °F 29.79 in Calm     98% 0 in WeatherDisplay:10.37 W/m2
04:35 74.8 °F 74.2 °F 29.79 in Calm     98% 0 in WeatherDisplay:10.37 W/m2
04:40 74.7 °F 74.1 °F 29.79 in Calm     98% 0 in WeatherDisplay:10.37 W/m2
04:45 74.7 °F 74.1 °F 29.79 in Calm     98% 0 in WeatherDisplay:10.37 W/m2
04:50 74.7 °F 74.1 °F 29.79 in Calm     98% 0 in WeatherDisplay:10.37 W/m2
04:55 74.4 °F 73.8 °F 29.80 in Calm     98% 0 in WeatherDisplay:10.37 W/m2
05:00 74.6 °F 74 °F 29.80 in Calm     98% 0 in WeatherDisplay:10.37 W/m2
05:05 74.6 °F 74 °F 29.80 in Calm     98% 0 in WeatherDisplay:10.37 W/m2
05:10 74.5 °F 73.9 °F 29.80 in Calm     98% 0 in WeatherDisplay:10.37 W/m2
05:15 74.2 °F 73.6 °F 29.80 in Calm     98% 0 in WeatherDisplay:10.37 W/m2
05:20 74.3 °F 73.7 °F 29.80 in Calm     98% 0 in WeatherDisplay:10.37 W/m2
05:25 74.2 °F 73.6 °F 29.80 in Calm     98% 0 in WeatherDisplay:10.37 W/m2
05:30 74.3 °F 73.7 °F 29.80 in Calm     98% 0 in WeatherDisplay:10.37 W/m2
05:35 74.3 °F 73.7 °F 29.80 in Calm     98% 0 in WeatherDisplay:10.37 W/m2
05:40 74.2 °F 73.6 °F 29.80 in Calm     98% 0 in WeatherDisplay:10.37 W/m2
05:45 74.1 °F 73.5 °F 29.80 in Calm     98% 0 in WeatherDisplay:10.37 W/m2
05:50 74.2 °F 73.6 °F 29.80 in Calm     98% 0 in WeatherDisplay:10.37 W/m2
05:55 74.1 °F 73.5 °F 29.80 in Calm     98% 0 in WeatherDisplay:10.37 W/m2
06:00 74 °F 73.4 °F 29.80 in Calm     98% 0 in WeatherDisplay:10.37 W/m2
06:05 73.8 °F 73.2 °F 29.80 in Calm     98% 0 in WeatherDisplay:10.37 W/m2
06:10 74 °F 73.4 °F 29.80 in Calm     98% 0 in WeatherDisplay:10.37 W/m2
06:15 74.1 °F 73.5 °F 29.80 in Calm     98% 0 in WeatherDisplay:10.37 W/m2
06:20 74 °F 73.4 °F 29.81 in Calm     98% 0 in WeatherDisplay:10.37 W/m2
06:25 74 °F 73.4 °F 29.81 in Calm     98% 0 in WeatherDisplay:10.37 W/m2
06:30 73.9 °F 73.3 °F 29.81 in Calm     98% 0 in WeatherDisplay:10.37 W/m2
06:35 74.1 °F 73.5 °F 29.81 in Calm     98% 0 in WeatherDisplay:10.37 W/m2
06:40 74.2 °F 73.6 °F 29.81 in Calm     98% 0 in WeatherDisplay:10.37 W/m2
06:45 74.3 °F 73.7 °F 29.81 in Calm     98% 0 in WeatherDisplay:10.37 W/m2
06:50 74.4 °F 73.8 °F 29.81 in Calm     98% 0 in WeatherDisplay:10.37 W/m2
06:55 74.5 °F 73.9 °F 29.81 in Calm     98% 0 in WeatherDisplay:10.37 W/m2
07:00 74.5 °F 73.9 °F 29.81 in Calm     98% 0 in WeatherDisplay:10.37 W/m2
07:05 74.6 °F 74 °F 29.81 in Calm     98% 0 in WeatherDisplay:10.37 W/m2
07:10 74.8 °F 73.9 °F 29.81 in Calm     97% 0 in WeatherDisplay:10.37 W/m2
07:15 74.8 °F 73.8 °F 29.81 in Calm     97% 0 in WeatherDisplay:10.37 W/m2
07:20 75 °F 73.8 °F 29.81 in Calm   2 mph 96% 0 in WeatherDisplay:10.37 W/m2
07:25 75.1 °F 73.6 °F 29.81 in Calm   2 mph 95% 0 in WeatherDisplay:10.37 W/m2
07:30 75.1 °F 73.5 °F 29.81 in Calm     95% 0 in WeatherDisplay:10.37 W/m2
07:35 75.1 °F 73.6 °F 29.81 in Calm     95% 0 in WeatherDisplay:10.37 W/m2
07:40 75.2 °F 73.3 °F 29.81 in Calm     94% 0 in WeatherDisplay:10.37 W/m2
07:45 75.6 °F 73.4 °F 29.82 in Calm     93% 0 in WeatherDisplay:10.37 W/m2
07:50 76 °F 73.1 °F 29.82 in Calm     91% 0 in WeatherDisplay:10.37 W/m2
07:55 76 °F 73.2 °F 29.81 in Calm     91% 0 in WeatherDisplay:10.37 W/m2
08:00 76.1 °F 73 °F 29.81 in Calm   2 mph 90% 0 in WeatherDisplay:10.37 W/m2
08:05 76.4 °F 72.9 °F 29.81 in Calm   1 mph 89% 0 in WeatherDisplay:10.37 W/m2
08:10 76.6 °F 72.8 °F 29.82 in Calm   1 mph 88% 0 in WeatherDisplay:10.37 W/m2
08:15 77 °F 72.8 °F 29.82 in Calm   1 mph 87% 0 in WeatherDisplay:10.37 W/m2
08:20 77.3 °F 72.8 °F 29.82 in Calm   1 mph 86% 0 in WeatherDisplay:10.37 W/m2
08:25 77.6 °F 73.1 °F 29.82 in Calm   1 mph 86% 0 in WeatherDisplay:10.37 W/m2
08:30 77.9 °F 73 °F 29.82 in Calm     85% 0 in WeatherDisplay:10.37 W/m2
08:35 77.9 °F 73.4 °F 29.82 in Calm     86% 0 in WeatherDisplay:10.37 W/m2
08:40 78 °F 73.1 °F 29.82 in Calm   1 mph 85% 0 in WeatherDisplay:10.37 W/m2
08:45 78.2 °F 73 °F 29.82 in Calm   1 mph 84% 0 in WeatherDisplay:10.37 W/m2
08:50 78.5 °F 72.9 °F 29.82 in Calm     83% 0 in WeatherDisplay:10.37 W/m2
08:55 78.6 °F 73.3 °F 29.82 in Calm     84% 0 in WeatherDisplay:10.37 W/m2
09:00 78.9 °F 72.9 °F 29.82 in Calm   3 mph 82% 0 in WeatherDisplay:10.37 W/m2
09:05 79.3 °F 73.3 °F 29.82 in Calm     82% 0 in WeatherDisplay:10.37 W/m2
09:10 79.8 °F 73.4 °F 29.82 in Calm   1 mph 81% 0 in WeatherDisplay:10.37 W/m2
09:15 80.1 °F 73.7 °F 29.82 in SW 2 mph 5 mph 81% 0 in WeatherDisplay:10.37 W/m2
09:20 80.2 °F 72.7 °F 29.81 in SW 2 mph 3 mph 78% 0 in WeatherDisplay:10.37 W/m2
09:25 80.4 °F 72.9 °F 29.81 in Calm   3 mph 78% 0 in WeatherDisplay:10.37 W/m2
09:30 80.4 °F 72.9 °F 29.80 in Calm   3 mph 78% 0 in WeatherDisplay:10.37 W/m2
09:35 80.7 °F 72.4 °F 29.80 in Calm     76% 0 in WeatherDisplay:10.37 W/m2
09:40 81.1 °F 73.2 °F 29.80 in Calm   5 mph 77% 0 in WeatherDisplay:10.37 W/m2
09:45 81.4 °F 73.5 °F 29.80 in Calm   2 mph 77% 0 in WeatherDisplay:10.37 W/m2
09:50 81.7 °F 72.6 °F 29.80 in Calm   2 mph 74% 0 in WeatherDisplay:10.37 W/m2
09:55 82.2 °F 73.1 °F 29.80 in Calm     74% 0 in WeatherDisplay:10.37 W/m2
10:00 82.4 °F 73.2 °F 29.80 in Calm   1 mph 74% 0 in WeatherDisplay:10.37 W/m2
10:05 82.5 °F 73.4 °F 29.80 in Calm     74% 0 in WeatherDisplay:10.37 W/m2
10:10 82.4 °F 73.7 °F 29.80 in NNW 1 mph 4 mph 75% 0 in WeatherDisplay:10.37 W/m2
10:15 82.5 °F 73.4 °F 29.80 in Calm   1 mph 74% 0 in WeatherDisplay:10.37 W/m2
10:20 82.5 °F 74.2 °F 29.80 in NW 2 mph 4 mph 76% 0 in WeatherDisplay:10.37 W/m2
10:25 82.9 °F 73.4 °F 29.80 in NNW 1 mph 2 mph 73% 0 in WeatherDisplay:10.37 W/m2
10:30 83.2 °F 74 °F 29.81 in WNW 3 mph 6 mph 74% 0 in WeatherDisplay:10.37 W/m2
10:35 83.4 °F 73.8 °F 29.80 in SW 2 mph 3 mph 73% 0 in WeatherDisplay:10.37 W/m2
10:40 83.5 °F 73.9 °F 29.81 in SSW 1 mph 4 mph 73% 0 in WeatherDisplay:10.37 W/m2
10:45 83.7 °F 73.7 °F 29.81 in SE 2 mph 4 mph 72% 0 in WeatherDisplay:10.37 W/m2
10:50 84.1 °F 74.1 °F 29.81 in Calm   3 mph 72% 0 in WeatherDisplay:10.37 W/m2
10:55 84.5 °F 73.2 °F 29.81 in East 1 mph 5 mph 69% 0 in WeatherDisplay:10.37 W/m2
11:00 85.2 °F 73.4 °F 29.81 in Calm   3 mph 68% 0 in WeatherDisplay:10.37 W/m2
11:05 86 °F 74.2 °F 29.81 in ESE 2 mph 6 mph 68% 0 in WeatherDisplay:10.37 W/m2
11:10 86.7 °F 72.2 °F 29.81 in SSE 2 mph 7 mph 62% 0 in WeatherDisplay:10.37 W/m2
11:15 87.5 °F 72.9 °F 29.81 in ESE 2 mph 7 mph 62% 0 in WeatherDisplay:10.37 W/m2
11:20 87.6 °F 72.5 °F 29.81 in East 1 mph 2 mph 61% 0 in WeatherDisplay:10.37 W/m2
11:25 88.1 °F 73.4 °F 29.81 in Calm   3 mph 62% 0 in WeatherDisplay:10.37 W/m2
11:30 88.3 °F 73.6 °F 29.81 in Calm   3 mph 62% 0 in WeatherDisplay:10.37 W/m2
11:35 88.7 °F 73.5 °F 29.81 in East 1 mph 3 mph 61% 0 in WeatherDisplay:10.37 W/m2
11:40 89.3 °F 74.5 °F 29.81 in ESE 2 mph 5 mph 62% 0 in WeatherDisplay:10.37 W/m2
11:45 89.8 °F 73.5 °F 29.81 in SE 1 mph 3 mph 59% 0 in WeatherDisplay:10.37 W/m2
11:50 89.7 °F 73.4 °F 29.81 in SE 2 mph 6 mph 59% 0 in WeatherDisplay:10.37 W/m2
11:55 89.5 °F 73.8 °F 29.81 in SSE 1 mph 3 mph 60% 0 in WeatherDisplay:10.37 W/m2
12:00 90.1 °F 73.3 °F 29.80 in ESE 2 mph 4 mph 58% 0 in WeatherDisplay:10.37 W/m2
12:05 90.5 °F 73.7 °F 29.80 in ENE 1 mph 2 mph 58% 0 in WeatherDisplay:10.37 W/m2
12:10 91 °F 74.1 °F 29.80 in NNE 1 mph 3 mph 58% 0 in WeatherDisplay:10.37 W/m2
12:15 91.2 °F 73.3 °F 29.80 in ENE 2 mph 3 mph 56% 0 in WeatherDisplay:10.37 W/m2
12:20 90.7 °F 73.9 °F 29.80 in ENE 1 mph 5 mph 58% 0 in WeatherDisplay:10.37 W/m2
12:25 90.8 °F 74 °F 29.80 in ENE 1 mph 6 mph 58% 0 in WeatherDisplay:10.37 W/m2
12:30 91 °F 74.2 °F 29.80 in NE 1 mph 3 mph 58% 0 in WeatherDisplay:10.37 W/m2
12:35 91.4 °F 74 °F 29.80 in NE 3 mph 6 mph 57% 0 in WeatherDisplay:10.37 W/m2
12:40 91.4 °F 72.9 °F 29.80 in Calm   6 mph 55% 0 in WeatherDisplay:10.37 W/m2
12:45 91.6 °F 72.6 °F 29.80 in ENE 2 mph 5 mph 54% 0 in WeatherDisplay:10.37 W/m2
12:50 92.1 °F 74.7 °F 29.80 in SW 1 mph 5 mph 57% 0 in WeatherDisplay:10.37 W/m2
12:55 91.9 °F 72.3 °F 29.80 in WSW 1 mph 4 mph 53% 0 in WeatherDisplay:10.37 W/m2
13:00 91.8 °F 73.8 °F 29.80 in WSW 1 mph 5 mph 56% 0 in WeatherDisplay:10.37 W/m2
13:05 91.8 °F 74.9 °F 29.79 in Calm   3 mph 58% 0 in WeatherDisplay:10.37 W/m2
13:10 91.7 °F 73.8 °F 29.79 in East 2 mph 5 mph 56% 0 in WeatherDisplay:10.37 W/m2
13:15 91.7 °F 74.9 °F 29.79 in Calm   5 mph 58% 0 in WeatherDisplay:10.37 W/m2
13:20 91.8 °F 74.4 °F 29.79 in South 2 mph 7 mph 57% 0 in WeatherDisplay:10.37 W/m2
13:25 91.8 °F 74.4 °F 29.79 in East 1 mph 7 mph 57% 0 in WeatherDisplay:10.37 W/m2
13:30 91.9 °F 75 °F 29.79 in ENE 2 mph 5 mph 58% 0 in WeatherDisplay:10.37 W/m2
13:35 91.7 °F 72.6 °F 29.79 in South 5 mph 6 mph 54% 0 in WeatherDisplay:10.37 W/m2
13:40 92.1 °F 74.7 °F 29.78 in South 2 mph 5 mph 57% 0 in WeatherDisplay:10.37 W/m2
13:45 92.4 °F 73.9 °F 29.78 in Calm   5 mph 55% 0 in WeatherDisplay:10.37 W/m2
13:50 92.5 °F 74.5 °F 29.78 in SSW 3 mph 6 mph 56% 0 in WeatherDisplay:10.37 W/m2
13:55 92.4 °F 72.7 °F 29.78 in SSE 2 mph 5 mph 53% 0 in WeatherDisplay:10.37 W/m2
14:00 92.4 °F 73.3 °F 29.77 in ENE 3 mph 7 mph 54% 0 in WeatherDisplay:10.37 W/m2
14:05 92.4 °F 73.3 °F 29.77 in NE 2 mph 7 mph 54% 0 in WeatherDisplay:10.37 W/m2
14:10 92.4 °F 74.4 °F 29.77 in Calm   5 mph 56% 0 in WeatherDisplay:10.37 W/m2
14:15 92.6 °F 75.1 °F 29.77 in SSW 2 mph 3 mph 57% 0 in WeatherDisplay:10.37 W/m2
14:20 92.8 °F 72.5 °F 29.76 in SW 2 mph 6 mph 52% 0 in WeatherDisplay:10.37 W/m2
14:25 92.8 °F 72.6 °F 29.76 in SW 1 mph 5 mph 52% 0 in WeatherDisplay:10.37 W/m2
14:30 92.8 °F 73.7 °F 29.76 in ESE 1 mph 3 mph 54% 0 in WeatherDisplay:10.37 W/m2
14:35 93 °F 73.9 °F 29.76 in ESE 2 mph 6 mph 54% 0 in WeatherDisplay:10.37 W/m2
14:40 93.2 °F 73.5 °F 29.76 in South 2 mph 6 mph 53% 0 in WeatherDisplay:10.37 W/m2
14:45 93.7 °F 74.5 °F 29.76 in Calm   5 mph 54% 0 in WeatherDisplay:10.37 W/m2
14:50 94.1 °F 74.9 °F 29.76 in SW 1 mph 4 mph 54% 0 in WeatherDisplay:10.37 W/m2
14:55 94.4 °F 75.2 °F 29.75 in WSW 2 mph 3 mph 54% 0 in WeatherDisplay:10.37 W/m2
15:00 94.9 °F 75.6 °F 29.75 in South 2 mph 7 mph 54% 0 in WeatherDisplay:10.37 W/m2
15:05 95.1 °F 74.7 °F 29.75 in SSW 1 mph 5 mph 52% 0 in WeatherDisplay:10.37 W/m2
15:10 94.8 °F 77.2 °F 29.75 in Calm   2 mph 57% 0 in WeatherDisplay:10.37 W/m2
15:15 94.6 °F 74.2 °F 29.75 in SSE 2 mph 6 mph 52% 0 in WeatherDisplay:10.37 W/m2
15:20 94.8 °F 75 °F 29.75 in SSW 1 mph 6 mph 53% 0 in WeatherDisplay:10.37 W/m2
15:25 94.7 °F 73.1 °F 29.75 in SSW 1 mph 5 mph 50% 0 in WeatherDisplay:10.37 W/m2
15:30 94.8 °F 72.6 °F 29.75 in South 6 mph 10 mph 49% 0 in WeatherDisplay:10.37 W/m2
15:35 94.4 °F 72.3 °F 29.75 in South 1 mph 8 mph 49% 0 in WeatherDisplay:10.37 W/m2
15:40 94.7 °F 73.8 °F 29.75 in Calm   6 mph 51% 0 in WeatherDisplay:10.37 W/m2
15:45 94.1 °F 73.8 °F 29.74 in Calm   4 mph 52% 0 in WeatherDisplay:10.37 W/m2
15:50 94 °F 76.5 °F 29.74 in Calm   2 mph 57% 0 in WeatherDisplay:10.37 W/m2
15:55 94 °F 76.5 °F 29.74 in Calm   3 mph 57% 0 in WeatherDisplay:10.37 W/m2
16:00 94.1 °F 74.9 °F 29.74 in Calm   3 mph 54% 0 in WeatherDisplay:10.37 W/m2
16:05 94.5 °F 76.9 °F 29.73 in Calm   2 mph 57% 0 in WeatherDisplay:10.37 W/m2
16:10 94.4 °F 72.9 °F 29.74 in WNW 2 mph 5 mph 50% 0 in WeatherDisplay:10.37 W/m2
16:15 94.6 °F 74.2 °F 29.73 in NW 1 mph 5 mph 52% 0 in WeatherDisplay:10.37 W/m2
16:20 94.2 °F 76.1 °F 29.73 in WSW 2 mph 5 mph 56% 0 in WeatherDisplay:10.37 W/m2
16:25 94.3 °F 72.8 °F 29.73 in SW 1 mph 5 mph 50% 0 in WeatherDisplay:10.37 W/m2
16:30 93.9 °F 76.3 °F 29.74 in SW 2 mph 6 mph 57% 0 in WeatherDisplay:10.37 W/m2
16:35 93.3 °F 72.4 °F 29.73 in SW 1 mph 4 mph 51% 0 in WeatherDisplay:10.37 W/m2
16:40 92.6 °F 75.7 °F 29.73 in South 1 mph 5 mph 58% 0 in WeatherDisplay:10.37 W/m2
16:45 92.3 °F 74.3 °F 29.73 in South 2 mph 4 mph 56% 0 in WeatherDisplay:10.37 W/m2
16:50 91.9 °F 74.5 °F 29.73 in SSW 1 mph 5 mph 57% 0 in WeatherDisplay:10.37 W/m2
16:55 92 °F 74 °F 29.73 in WSW 1 mph 5 mph 56% 0 in WeatherDisplay:10.37 W/m2
17:00 92.1 °F 76.8 °F 29.73 in Calm   2 mph 61% 0 in WeatherDisplay:10.37 W/m2
17:05 92.2 °F 75.3 °F 29.73 in SW 2 mph 4 mph 58% 0 in WeatherDisplay:10.37 W/m2
17:10 92.4 °F 77 °F 29.73 in WSW 1 mph 2 mph 61% 0 in WeatherDisplay:10.37 W/m2
17:15 92.5 °F 75 °F 29.73 in Calm   6 mph 57% 0 in WeatherDisplay:10.37 W/m2
17:20 92.3 °F 76.9 °F 29.73 in Calm   5 mph 61% 0 in WeatherDisplay:10.37 W/m2
17:25 92.3 °F 76.9 °F 29.73 in Calm   5 mph 61% 0 in WeatherDisplay:10.37 W/m2
17:30 91.9 °F 77 °F 29.72 in SW 1 mph 3 mph 62% 0 in WeatherDisplay:10.37 W/m2
17:35 91 °F 73.2 °F 29.72 in SW 2 mph 6 mph 56% 0 in WeatherDisplay:10.37 W/m2
17:40 91 °F 75.6 °F 29.72 in Calm   3 mph 61% 0 in WeatherDisplay:10.37 W/m2
17:45 90.4 °F 75.1 °F 29.73 in Calm   10 mph 61% 0 in WeatherDisplay:10.37 W/m2
17:50 89.8 °F 76 °F 29.73 in Calm   6 mph 64% 0 in WeatherDisplay:10.37 W/m2
17:55 89.2 °F 75.4 °F 29.73 in Calm   6 mph 64% 0 in WeatherDisplay:10.37 W/m2
18:00 88.7 °F 76.4 °F 29.73 in Calm   1 mph 67% 0 in WeatherDisplay:10.37 W/m2
18:05 88.4 °F 76.5 °F 29.73 in Calm   2 mph 68% 0 in WeatherDisplay:10.37 W/m2
18:10 88.1 °F 75.8 °F 29.73 in Calm   4 mph 67% 0 in WeatherDisplay:10.37 W/m2
18:15 87.7 °F 76.2 °F 29.73 in South 1 mph 4 mph 69% 0 in WeatherDisplay:10.37 W/m2
18:20 87.6 °F 76.2 °F 29.73 in SW 1 mph 6 mph 69% 0 in WeatherDisplay:10.37 W/m2
18:25 87.5 °F 76 °F 29.73 in Calm   2 mph 69% 0 in WeatherDisplay:10.37 W/m2
18:30 87.2 °F 76.3 °F 29.73 in Calm     70% 0 in WeatherDisplay:10.37 W/m2
18:35 86.9 °F 75.9 °F 29.73 in Calm     70% 0 in WeatherDisplay:10.37 W/m2
18:40 86.6 °F 75.6 °F 29.73 in Calm   2 mph 70% 0 in WeatherDisplay:10.37 W/m2
18:45 86.3 °F 76.2 °F 29.73 in South 1 mph 2 mph 72% 0 in WeatherDisplay:10.37 W/m2
18:50 85.9 °F 75.8 °F 29.74 in Calm   1 mph 72% 0 in WeatherDisplay:10.37 W/m2
18:55 85.7 °F 76.1 °F 29.74 in Calm     73% 0 in WeatherDisplay:10.37 W/m2
19:00 85.6 °F 76.3 °F 29.74 in Calm     74% 0 in WeatherDisplay:10.37 W/m2
19:05 85.4 °F 76.2 °F 29.74 in Calm     74% 0 in WeatherDisplay:10.37 W/m2
19:10 85.1 °F 76.3 °F 29.74 in Calm     75% 0 in WeatherDisplay:10.37 W/m2
19:15 84.8 °F 76 °F 29.74 in Calm   2 mph 75% 0 in WeatherDisplay:10.37 W/m2
19:20 84.5 °F 76.1 °F 29.75 in SW 1 mph 2 mph 76% 0 in WeatherDisplay:10.37 W/m2
19:25 84.1 °F 76.1 °F 29.75 in Calm   2 mph 77% 0 in WeatherDisplay:10.37 W/m2
19:30 84 °F 76.4 °F 29.75 in Calm   2 mph 78% 0 in WeatherDisplay:10.37 W/m2
19:35 83.7 °F 76.1 °F 29.75 in Calm     78% 0 in WeatherDisplay:10.37 W/m2
19:40 83.6 °F 76 °F 29.76 in Calm   1 mph 78% 0 in WeatherDisplay:10.37 W/m2
19:45 83.5 °F 76.3 °F 29.76 in Calm     79% 0 in WeatherDisplay:10.37 W/m2
19:50 83.4 °F 76.2 °F 29.76 in Calm   1 mph 79% 0 in WeatherDisplay:10.37 W/m2
19:55 83.4 °F 76.2 °F 29.76 in Calm   1 mph 79% 0 in WeatherDisplay:10.37 W/m2
20:00 83.2 °F 76.4 °F 29.76 in WSW 1 mph 2 mph 80% 0 in WeatherDisplay:10.37 W/m2
20:05 82.9 °F 76.1 °F 29.76 in Calm   2 mph 80% 0 in WeatherDisplay:10.37 W/m2
20:10 82.7 °F 75.9 °F 29.76 in Calm   2 mph 80% 0 in WeatherDisplay:10.37 W/m2
20:15 82.5 °F 75.7 °F 29.76 in Calm     80% 0 in WeatherDisplay:10.37 W/m2
20:20 82.4 °F 76 °F 29.76 in Calm     81% 0 in WeatherDisplay:10.37 W/m2
20:25 82.1 °F 75.6 °F 29.75 in Calm   1 mph 81% 0 in WeatherDisplay:10.37 W/m2
20:30 81.7 °F 75.3 °F 29.76 in Calm   1 mph 81% 0 in WeatherDisplay:10.37 W/m2
20:35 81.6 °F 75.2 °F 29.76 in Calm   2 mph 81% 0 in WeatherDisplay:10.37 W/m2
20:40 81.3 °F 75.3 °F 29.76 in Calm   1 mph 82% 0 in WeatherDisplay:10.37 W/m2
20:45 81.2 °F 75.2 °F 29.76 in Calm     82% 0 in WeatherDisplay:10.37 W/m2
Compliments of Weather Underground - 2.25 mb